createdAt,value
2022-09-28T00:00:50.188Z,2.10
2022-09-28T00:03:54.711Z,2.30
2022-09-28T00:06:56.375Z,2.40
2022-09-28T00:09:58.010Z,2.30
2022-09-28T00:13:01.376Z,2.28
2022-09-28T00:19:06.576Z,2.22
2022-09-28T00:22:08.159Z,2.25
2022-09-28T00:25:09.822Z,2.60
2022-09-28T00:28:11.573Z,2.40
2022-09-28T00:31:13.388Z,2.25
2022-09-28T00:34:16.116Z,2.40
2022-09-28T00:37:19.130Z,2.25
2022-09-28T00:40:21.088Z,2.25
2022-09-28T00:43:23.869Z,2.83
2022-09-28T00:46:33.023Z,2.50
2022-09-28T00:49:54.165Z,2.33
2022-09-28T00:52:59.816Z,2.50
2022-09-28T00:56:12.689Z,2.55
2022-09-28T00:59:15.193Z,2.30
2022-09-28T01:02:16.855Z,2.40
2022-09-28T01:05:19.633Z,2.63
2022-09-28T01:08:23.337Z,2.30
2022-09-28T01:11:26.903Z,2.70
2022-09-28T01:14:29.974Z,2.40
2022-09-28T01:17:59.776Z,2.42
2022-09-28T01:21:19.653Z,2.20
2022-09-28T01:24:42.258Z,2.63
2022-09-28T01:28:00.077Z,2.38
2022-09-28T01:31:09.700Z,2.10
2022-09-28T01:34:27.344Z,2.47
2022-09-28T01:37:39.619Z,2.85
2022-09-28T01:40:41.980Z,2.70
2022-09-28T01:43:50.427Z,2.40
2022-09-28T01:46:53.376Z,2.17
2022-09-28T01:50:03.915Z,2.30
2022-09-28T01:53:08.248Z,2.55
2022-09-28T01:56:17.357Z,2.25
2022-09-28T01:59:24.351Z,2.60
2022-09-28T02:02:32.480Z,2.33
2022-09-28T02:05:36.994Z,2.40
2022-09-28T02:08:44.358Z,2.97
2022-09-28T02:11:53.431Z,3.00
2022-09-28T02:15:05.430Z,3.20
2022-09-28T02:18:07.959Z,3.47
2022-09-28T02:21:15.232Z,2.97
2022-09-28T02:24:37.052Z,3.35
2022-09-28T02:27:56.891Z,3.33
2022-09-28T02:30:58.542Z,3.45
2022-09-28T02:34:00.809Z,3.78
2022-09-28T02:37:02.820Z,3.40
2022-09-28T02:40:16.161Z,3.08
2022-09-28T02:43:38.477Z,2.85
2022-09-28T02:46:59.014Z,2.70
2022-09-28T02:50:13.798Z,3.53
2022-09-28T02:53:37.199Z,3.30
2022-09-28T02:56:38.862Z,2.78
2022-09-28T02:59:52.982Z,1.55
2022-09-28T03:03:03.960Z,1.55
2022-09-28T03:06:33.517Z,1.38
2022-09-28T03:09:38.688Z,1.10
2022-09-28T03:12:43.118Z,1.25
2022-09-28T03:15:48.515Z,1.10
2022-09-28T03:18:51.581Z,0.90
2022-09-28T03:21:54.444Z,1.05
2022-09-28T03:24:56.040Z,1.15
2022-09-28T03:27:57.659Z,1.08
2022-09-28T03:31:00.532Z,1.20
2022-09-28T03:34:02.194Z,1.50
2022-09-28T03:37:03.805Z,1.23
2022-09-28T03:40:06.006Z,1.00
2022-09-28T03:43:08.682Z,1.20
2022-09-28T03:46:10.494Z,1.02
2022-09-28T03:49:17.288Z,1.25
2022-09-28T03:52:19.025Z,1.23
2022-09-28T03:55:20.703Z,1.02
2022-09-28T03:58:23.070Z,1.42
2022-09-28T04:01:24.786Z,1.30
2022-09-28T04:04:26.445Z,1.83
2022-09-28T04:07:31.086Z,1.50
2022-09-28T04:10:33.645Z,2.20
2022-09-28T04:13:35.274Z,1.85
2022-09-28T04:16:37.134Z,2.17
2022-09-28T04:19:43.585Z,2.30
2022-09-28T04:22:58.320Z,2.13
2022-09-28T04:26:00.616Z,2.60
2022-09-28T04:29:18.174Z,2.33
2022-09-28T04:32:38.730Z,2.35
2022-09-28T04:35:40.518Z,2.67
2022-09-28T04:38:52.658Z,2.70
2022-09-28T04:41:56.251Z,3.30
2022-09-28T04:44:58.781Z,3.20
2022-09-28T04:48:00.712Z,3.13
2022-09-28T04:51:18.348Z,3.03
2022-09-28T04:54:20.009Z,3.35
2022-09-28T04:57:21.946Z,3.25
2022-09-28T05:00:23.513Z,3.55
2022-09-28T05:03:40.083Z,4.13
2022-09-28T05:07:00.096Z,4.18
2022-09-28T05:10:01.696Z,4.72
2022-09-28T05:13:06.930Z,5.00
2022-09-28T05:16:09.569Z,4.13
2022-09-28T05:19:27.562Z,4.32
2022-09-28T05:22:36.102Z,4.40
2022-09-28T05:25:40.144Z,5.07
2022-09-28T05:28:51.154Z,5.10
2022-09-28T05:32:11.284Z,5.13
2022-09-28T05:35:16.038Z,5.10
2022-09-28T05:38:20.741Z,4.65
2022-09-28T05:41:22.975Z,4.55
2022-09-28T05:44:25.851Z,4.65
2022-09-28T05:47:28.460Z,4.63
2022-09-28T05:50:30.153Z,5.13
2022-09-28T05:53:31.780Z,5.25
2022-09-28T05:56:34.143Z,5.25
2022-09-28T05:59:38.960Z,4.78
2022-09-28T06:02:40.619Z,5.30
2022-09-28T06:05:47.305Z,4.55
2022-09-28T06:08:49.400Z,4.97
2022-09-28T06:12:05.056Z,4.53
2022-09-28T06:15:20.079Z,4.30
2022-09-28T06:18:21.764Z,4.40
2022-09-28T06:21:41.994Z,4.60
2022-09-28T06:24:43.997Z,4.53
2022-09-28T06:27:57.855Z,4.38
2022-09-28T06:31:02.952Z,4.90
2022-09-28T06:34:05.857Z,4.88
2022-09-28T06:37:07.676Z,4.55
2022-09-28T06:40:10.145Z,4.20
2022-09-28T06:43:15.040Z,4.05
2022-09-28T06:46:35.689Z,3.88
2022-09-28T06:49:48.304Z,3.95
2022-09-28T06:53:02.074Z,3.97
2022-09-28T06:56:22.774Z,3.30
2022-09-28T06:59:24.509Z,2.92
2022-09-28T07:02:26.859Z,3.75
2022-09-28T07:05:51.365Z,3.38
2022-09-28T07:09:30.570Z,3.30
2022-09-28T07:12:52.785Z,3.15
2022-09-28T07:16:09.018Z,2.88
2022-09-28T07:19:10.896Z,2.75
2022-09-28T07:22:18.508Z,2.10
2022-09-28T07:25:21.842Z,2.58
2022-09-28T07:29:03.535Z,2.50
2022-09-28T07:32:34.641Z,2.25
2022-09-28T07:36:07.142Z,2.33
2022-09-28T07:39:11.617Z,2.22
2022-09-28T07:42:15.563Z,2.17
2022-09-28T07:45:17.972Z,2.20
2022-09-28T07:48:20.026Z,2.50
2022-09-28T07:51:49.631Z,2.38
2022-09-28T07:54:56.712Z,2.45
2022-09-28T07:58:19.389Z,1.88
2022-09-28T08:01:34.385Z,2.15
2022-09-28T08:04:36.143Z,2.25
2022-09-28T08:07:38.357Z,1.77
2022-09-28T08:10:46.901Z,2.20
2022-09-28T08:14:08.055Z,2.00
2022-09-28T08:17:28.417Z,2.80
2022-09-28T08:20:52.228Z,2.08
2022-09-28T08:23:53.970Z,2.20
2022-09-28T08:26:57.089Z,2.13
2022-09-28T08:30:02.650Z,2.00
2022-09-28T08:33:23.279Z,2.30
2022-09-28T08:36:24.830Z,2.25
2022-09-28T08:39:46.720Z,2.17
2022-09-28T08:43:24.326Z,2.17
2022-09-28T08:46:53.733Z,2.10
2022-09-28T08:50:26.940Z,2.10
2022-09-28T08:54:06.961Z,2.08
2022-09-28T08:57:30.624Z,2.17
2022-09-28T09:00:38.106Z,2.22
2022-09-28T09:03:41.827Z,2.17
2022-09-28T09:07:11.852Z,2.33
2022-09-28T09:11:01.361Z,2.28
2022-09-28T09:14:27.571Z,2.53
2022-09-28T09:17:45.201Z,2.60
2022-09-28T09:20:58.335Z,2.40
2022-09-28T09:24:27.470Z,2.42
2022-09-28T09:27:41.941Z,2.33
2022-09-28T09:31:22.863Z,3.00
2022-09-28T09:34:48.385Z,2.45
2022-09-28T09:38:41.772Z,2.60
2022-09-28T09:42:29.929Z,3.00
2022-09-28T09:46:14.203Z,3.30
2022-09-28T09:50:08.453Z,2.90
2022-09-28T09:53:29.905Z,3.40
2022-09-28T09:56:47.249Z,2.63
2022-09-28T10:00:02.397Z,2.90
2022-09-28T10:03:28.134Z,3.10
2022-09-28T10:06:44.417Z,3.20
2022-09-28T10:09:48.419Z,3.28
2022-09-28T10:13:13.591Z,2.40
2022-09-28T10:16:21.090Z,2.38
2022-09-28T10:19:35.540Z,2.13
2022-09-28T10:22:57.940Z,2.08
2022-09-28T10:26:08.277Z,1.65
2022-09-28T10:29:17.048Z,1.60
2022-09-28T10:32:25.657Z,1.50
2022-09-28T10:35:42.978Z,2.00
2022-09-28T10:38:48.291Z,1.58
2022-09-28T10:45:12.674Z,1.67
2022-09-28T10:48:21.261Z,1.50
2022-09-28T10:51:52.027Z,1.60
2022-09-28T10:55:30.670Z,1.83
2022-09-28T10:58:40.595Z,1.80
2022-09-28T11:01:45.621Z,1.60
2022-09-28T11:04:53.267Z,1.60
2022-09-28T11:07:56.005Z,1.60
2022-09-28T11:11:11.689Z,1.60
2022-09-28T11:14:42.067Z,1.75
2022-09-28T11:17:49.618Z,1.30
2022-09-28T11:21:10.699Z,1.30
2022-09-28T11:24:19.094Z,1.40
2022-09-28T11:27:26.644Z,1.42
2022-09-28T11:30:48.359Z,1.33
2022-09-28T11:34:16.554Z,1.33
2022-09-28T11:37:49.298Z,1.17
2022-09-28T11:41:23.895Z,1.50
2022-09-28T11:44:48.483Z,1.50
2022-09-28T11:48:00.798Z,1.40
2022-09-28T11:51:15.509Z,1.52
2022-09-28T11:54:28.986Z,1.15
2022-09-28T11:57:36.710Z,1.00
2022-09-28T12:00:45.607Z,1.20
2022-09-28T12:04:31.179Z,1.40
2022-09-28T12:07:38.301Z,1.20
2022-09-28T12:10:53.877Z,1.00
2022-09-28T12:14:06.732Z,1.38
2022-09-28T12:17:24.831Z,1.40
2022-09-28T12:20:30.582Z,1.20
2022-09-28T12:23:35.797Z,1.20
2022-09-28T12:26:55.285Z,1.40
2022-09-28T12:29:59.872Z,1.15
2022-09-28T12:33:12.319Z,1.10
2022-09-28T12:36:30.728Z,0.98
2022-09-28T12:39:58.007Z,1.00
2022-09-28T12:43:39.917Z,0.93
2022-09-28T12:47:14.685Z,1.80
2022-09-28T12:50:39.341Z,1.50
2022-09-28T12:53:48.691Z,0.90
2022-09-28T12:57:30.793Z,0.88
2022-09-28T13:00:47.298Z,1.00
2022-09-28T13:04:15.737Z,1.10
2022-09-28T13:07:33.430Z,1.30
2022-09-28T13:10:44.384Z,1.20
2022-09-28T13:14:01.877Z,1.02
2022-09-28T13:17:12.152Z,1.40
2022-09-28T13:20:37.957Z,1.40
2022-09-28T13:23:47.420Z,1.48
2022-09-28T13:26:49.556Z,6.53
2022-09-28T13:29:51.679Z,1.67
2022-09-28T13:32:57.048Z,1.40
2022-09-28T13:35:58.671Z,2.30
2022-09-28T13:39:01.002Z,1.30
2022-09-28T13:42:03.660Z,1.63
2022-09-28T13:45:09.600Z,1.30
2022-09-28T13:48:21.392Z,1.50
2022-09-28T13:51:34.184Z,1.38
2022-09-28T13:54:47.956Z,1.50
2022-09-28T13:57:55.877Z,1.30
2022-09-28T14:01:12.799Z,1.42
2022-09-28T14:04:20.543Z,2.15
2022-09-28T14:07:29.626Z,1.23
2022-09-28T14:10:52.447Z,1.30
2022-09-28T14:14:06.511Z,1.10
2022-09-28T14:17:27.225Z,1.38
2022-09-28T14:20:34.882Z,1.20
2022-09-28T14:23:51.056Z,0.98
2022-09-28T14:27:17.496Z,0.85
2022-09-28T14:30:41.329Z,0.98
2022-09-28T14:33:56.913Z,1.00
2022-09-28T14:37:17.974Z,0.85
2022-09-28T14:40:42.891Z,0.98
2022-09-28T14:43:47.484Z,0.80
2022-09-28T14:46:49.098Z,1.10
2022-09-28T14:50:00.864Z,0.90
2022-09-28T14:53:10.133Z,0.80
2022-09-28T14:56:14.216Z,0.70
2022-09-28T14:59:36.035Z,0.60
2022-09-28T15:02:38.762Z,0.82
2022-09-28T15:05:47.232Z,0.93
2022-09-28T15:08:49.468Z,1.05
2022-09-28T15:11:55.491Z,0.93
2022-09-28T15:15:03.865Z,1.40
2022-09-28T15:18:16.667Z,1.55
2022-09-28T15:21:18.742Z,2.15
2022-09-28T15:24:26.096Z,3.00
2022-09-28T15:27:36.608Z,4.32
2022-09-28T15:30:38.384Z,5.00
2022-09-28T15:33:59.614Z,3.67
2022-09-28T15:37:03.989Z,3.13
2022-09-28T15:40:16.118Z,3.13
2022-09-28T15:43:20.678Z,2.90
2022-09-28T15:46:23.080Z,1.83
2022-09-28T15:49:38.902Z,2.10
2022-09-28T15:52:54.779Z,1.55
2022-09-28T15:56:05.924Z,2.13
2022-09-28T15:59:12.020Z,1.90
2022-09-28T16:02:23.122Z,2.00
2022-09-28T16:05:40.966Z,1.70
2022-09-28T16:08:45.437Z,1.58
2022-09-28T16:11:49.348Z,1.10
2022-09-28T16:14:53.810Z,1.63
2022-09-28T16:18:00.689Z,1.10
2022-09-28T16:21:27.386Z,1.30
2022-09-28T16:24:33.606Z,2.63
2022-09-28T16:27:43.495Z,1.40
2022-09-28T16:31:00.157Z,1.70
2022-09-28T16:34:17.341Z,1.23
2022-09-28T16:37:47.610Z,1.15
2022-09-28T16:40:54.674Z,1.67
2022-09-28T16:44:02.159Z,1.10
2022-09-28T16:47:03.792Z,1.10
2022-09-28T16:50:06.475Z,0.90
2022-09-28T16:53:33.985Z,1.40
2022-09-28T16:56:36.759Z,19.30
2022-09-28T16:59:38.631Z,5.32
2022-09-28T17:02:46.695Z,2.53
2022-09-28T17:05:49.878Z,7.13
2022-09-28T17:08:52.076Z,9.80
2022-09-28T17:11:56.097Z,4.93
2022-09-28T17:15:00.323Z,6.13
2022-09-28T17:18:01.902Z,8.48
2022-09-28T17:21:05.752Z,4.13
2022-09-28T17:24:07.999Z,7.00
2022-09-28T17:27:15.770Z,5.60
2022-09-28T17:30:23.595Z,11.13
2022-09-28T17:33:27.018Z,13.32
2022-09-28T17:36:30.411Z,13.45
2022-09-28T17:42:34.014Z,11.45
2022-09-28T17:45:56.575Z,9.80
2022-09-28T17:49:07.895Z,7.03
2022-09-28T17:52:10.300Z,24.85
2022-09-28T17:55:12.392Z,9.68
2022-09-28T17:58:19.458Z,6.15
2022-09-28T18:01:22.203Z,4.55
2022-09-28T18:04:50.311Z,7.25
2022-09-28T18:07:47.783Z,7.75
2022-09-28T18:10:50.466Z,5.15
2022-09-28T18:13:55.171Z,3.38
2022-09-28T18:16:57.134Z,3.47
2022-09-28T18:19:58.918Z,2.97
2022-09-28T18:23:00.708Z,3.20
2022-09-28T18:26:02.997Z,2.80
2022-09-28T18:29:04.862Z,3.90
2022-09-28T18:32:06.637Z,4.28
2022-09-28T18:35:13.606Z,4.05
2022-09-28T18:38:15.319Z,3.08
2022-09-28T18:41:16.916Z,2.65
2022-09-28T18:44:18.752Z,2.70
2022-09-28T18:47:20.544Z,2.13
2022-09-28T18:50:22.232Z,2.67
2022-09-28T18:53:24.059Z,2.30
2022-09-28T18:56:25.951Z,1.90
2022-09-28T18:59:27.562Z,8.43
2022-09-28T19:02:29.313Z,5.32
2022-09-28T19:05:35.059Z,2.47
2022-09-28T19:08:37.136Z,1.30
2022-09-28T19:11:38.905Z,1.60
2022-09-28T19:14:40.496Z,1.75
2022-09-28T19:17:42.499Z,2.17
2022-09-28T19:20:44.569Z,1.77
2022-09-28T19:23:49.274Z,2.75
2022-09-28T19:26:53.579Z,3.40
2022-09-28T19:29:55.217Z,3.35
2022-09-28T19:32:56.814Z,1.80
2022-09-28T19:36:01.105Z,1.90
2022-09-28T19:39:03.377Z,7.50
2022-09-28T19:42:05.043Z,4.82
2022-09-28T19:45:10.806Z,3.78
2022-09-28T19:48:12.577Z,4.15
2022-09-28T19:51:17.518Z,4.05
2022-09-28T19:54:22.245Z,4.72
2022-09-28T19:57:25.999Z,2.30
2022-09-28T20:00:27.944Z,2.95
2022-09-28T20:03:29.730Z,5.85
2022-09-28T20:06:32.171Z,4.10
2022-09-28T20:09:33.780Z,3.10
2022-09-28T20:12:35.553Z,3.17
2022-09-28T20:15:37.487Z,2.95
2022-09-28T20:18:43.662Z,4.47
2022-09-28T20:21:45.292Z,6.60
2022-09-28T20:24:47.010Z,5.72
2022-09-28T20:27:48.677Z,6.00
2022-09-28T20:30:50.385Z,3.85
2022-09-28T20:33:52.488Z,5.03
2022-09-28T20:36:54.073Z,3.00
2022-09-28T20:39:55.713Z,2.78
2022-09-28T20:42:57.258Z,3.30
2022-09-28T20:45:58.919Z,3.10
2022-09-28T20:49:00.799Z,3.90
2022-09-28T20:52:02.423Z,7.90
2022-09-28T20:55:04.289Z,2.40
2022-09-28T20:58:05.925Z,5.25
2022-09-28T21:01:09.951Z,3.65
2022-09-28T21:04:11.826Z,3.78
2022-09-28T21:07:13.514Z,3.40
2022-09-28T21:10:16.191Z,3.53
2022-09-28T21:13:17.785Z,3.15
2022-09-28T21:16:19.598Z,3.22
2022-09-28T21:19:23.153Z,3.60
2022-09-28T21:22:24.725Z,4.07
2022-09-28T21:25:26.328Z,3.78
2022-09-28T21:28:27.920Z,3.58
2022-09-28T21:31:45.908Z,3.53
2022-09-28T21:34:47.527Z,3.40
2022-09-28T21:37:49.691Z,3.55
2022-09-28T21:40:55.751Z,3.35
2022-09-28T21:43:57.489Z,3.90
2022-09-28T21:46:59.316Z,3.47
2022-09-28T21:50:00.887Z,3.15
2022-09-28T21:53:03.211Z,3.22
2022-09-28T21:56:07.948Z,3.03
2022-09-28T21:59:09.573Z,3.47
2022-09-28T22:02:11.141Z,3.63
2022-09-28T22:05:13.367Z,11.00
2022-09-28T22:08:15.043Z,5.07
2022-09-28T22:11:25.377Z,3.33
2022-09-28T22:14:27.304Z,3.00
2022-09-28T22:17:28.918Z,4.03
2022-09-28T22:20:30.487Z,3.30
2022-09-28T22:23:32.780Z,3.10
2022-09-28T22:26:36.178Z,3.67
2022-09-28T22:32:39.368Z,3.17
2022-09-28T22:35:41.108Z,2.97
2022-09-28T22:38:46.989Z,3.20
2022-09-28T22:41:49.232Z,2.63
2022-09-28T22:44:50.919Z,3.00
2022-09-28T22:47:52.593Z,3.45
2022-09-28T22:50:54.170Z,3.15
2022-09-28T22:53:56.674Z,3.53
2022-09-28T22:56:58.385Z,3.73
2022-09-28T23:00:00.189Z,3.97
2022-09-28T23:03:04.759Z,4.55
2022-09-28T23:06:07.255Z,4.47
2022-09-28T23:09:08.887Z,4.83
2022-09-28T23:12:10.501Z,4.35
2022-09-28T23:15:12.392Z,5.28
2022-09-28T23:18:14.039Z,4.50
2022-09-28T23:21:18.376Z,5.50
2022-09-28T23:24:19.959Z,5.40
2022-09-28T23:27:21.597Z,6.28
2022-09-28T23:30:23.850Z,3.55
2022-09-28T23:33:25.522Z,3.55
2022-09-28T23:36:27.237Z,5.00
2022-09-28T23:39:28.809Z,3.90
2022-09-28T23:42:30.505Z,2.90
2022-09-28T23:45:32.104Z,3.30
2022-09-28T23:48:34.264Z,3.08
2022-09-28T23:51:35.914Z,2.83
2022-09-28T23:54:37.545Z,3.05
2022-09-28T23:57:40.481Z,2.97
